AAL711 KRDU-KPBI
Flight info
| Callsign | AAL711 |
|---|---|
| Flight time | 1h 42m |
| Altitude | 34000 |
| Route | HOOKZ5 DAWTS MRPIT CAKET Q97 KENLL CPTAN3 |
| Aircraft | A321/M-SDE3FGHIRWY/LB1 |
Departure
| Time | 2026-05-03 22:10 |
|---|---|
| Airport | Raleigh-Durham International Airport (KRDU) |
Arrival
| Time | 2026-05-03 23:52 |
|---|---|
| Airport | Palm Beach International Airport (KPBI) |
| Time | Latitude | Longitude | Altitude | Speed | Heading |
|---|---|---|---|---|---|
| 2026-05-03 21:41 | 35.87786 | -78.79381 | 390 ft | 0 kts | 135° |
| 2026-05-03 21:49 | 35.87787 | -78.79383 | 390 ft | 2 kts | 135° |
| 2026-05-03 21:49 | 35.87788 | -78.79383 | 390 ft | 0 kts | 135° |
| 2026-05-03 21:56 | 35.87803 | -78.79403 | 388 ft | 4 kts | 135° |
| 2026-05-03 21:56 | 35.87821 | -78.79426 | 387 ft | 3 kts | 122° |
| 2026-05-03 21:56 | 35.87822 | -78.79453 | 385 ft | 3 kts | 69° |
| 2026-05-03 21:56 | 35.87814 | -78.79468 | 385 ft | 0 kts | 40° |
| 2026-05-03 21:59 | 35.87816 | -78.79466 | 385 ft | 3 kts | 41° |
| 2026-05-03 21:59 | 35.87853 | -78.79422 | 385 ft | 9 kts | 45° |
| 2026-05-03 21:59 | 35.87897 | -78.79365 | 387 ft | 9 kts | 47° |
| 2026-05-03 21:59 | 35.87945 | -78.79295 | 389 ft | 13 kts | 50° |
| 2026-05-03 22:00 | 35.88001 | -78.79217 | 391 ft | 12 kts | 47° |
| 2026-05-03 22:00 | 35.88055 | -78.79148 | 393 ft | 10 kts | 45° |
| 2026-05-03 22:00 | 35.88103 | -78.79090 | 394 ft | 9 kts | 45° |
| 2026-05-03 22:00 | 35.88146 | -78.79037 | 395 ft | 8 kts | 44° |
| 2026-05-03 22:01 | 35.88182 | -78.78994 | 396 ft | 7 kts | 44° |
| 2026-05-03 22:01 | 35.88212 | -78.78958 | 398 ft | 5 kts | 44° |
| 2026-05-03 22:01 | 35.88231 | -78.78934 | 399 ft | 3 kts | 44° |
| 2026-05-03 22:01 | 35.88241 | -78.78923 | 399 ft | 1 kts | 44° |
| 2026-05-03 22:02 | 35.88246 | -78.78916 | 400 ft | 7 kts | 44° |
| 2026-05-03 22:02 | 35.88323 | -78.78822 | 400 ft | 19 kts | 45° |
| 2026-05-03 22:02 | 35.88411 | -78.78715 | 402 ft | 17 kts | 44° |
| 2026-05-03 22:02 | 35.88497 | -78.78612 | 402 ft | 17 kts | 46° |
| 2026-05-03 22:03 | 35.88573 | -78.78511 | 403 ft | 16 kts | 46° |
| 2026-05-03 22:03 | 35.88650 | -78.78410 | 402 ft | 16 kts | 46° |
| 2026-05-03 22:03 | 35.88731 | -78.78307 | 400 ft | 17 kts | 45° |
| 2026-05-03 22:03 | 35.88821 | -78.78202 | 399 ft | 18 kts | 43° |
| 2026-05-03 22:04 | 35.88906 | -78.78102 | 398 ft | 18 kts | 45° |
| 2026-05-03 22:04 | 35.88985 | -78.77990 | 400 ft | 16 kts | 50° |
| 2026-05-03 22:04 | 35.89027 | -78.77889 | 402 ft | 11 kts | 56° |
| 2026-05-03 22:04 | 35.89069 | -78.77821 | 403 ft | 10 kts | 48° |
| 2026-05-03 22:05 | 35.89118 | -78.77762 | 403 ft | 10 kts | 42° |
| 2026-05-03 22:05 | 35.89162 | -78.77710 | 405 ft | 8 kts | 47° |
| 2026-05-03 22:05 | 35.89199 | -78.77667 | 405 ft | 8 kts | 26° |
| 2026-05-03 22:05 | 35.89236 | -78.77662 | 405 ft | 0 kts | 333° |
| 2026-05-03 22:07 | 35.89249 | -78.77671 | 404 ft | 12 kts | 327° |
| 2026-05-03 22:08 | 35.89299 | -78.77722 | 404 ft | 14 kts | 316° |
| 2026-05-03 22:08 | 35.89355 | -78.77795 | 402 ft | 6 kts | 299° |
| 2026-05-03 22:08 | 35.89360 | -78.77814 | 402 ft | 2 kts | 262° |
| 2026-05-03 22:08 | 35.89346 | -78.77844 | 402 ft | 11 kts | 231° |
| 2026-05-03 22:09 | 35.89107 | -78.78137 | 393 ft | 85 kts | 225° |
| 2026-05-03 22:09 | 35.88531 | -78.78856 | 395 ft | 146 kts | 226° |
| 2026-05-03 22:09 | 35.87679 | -78.79829 | 560 ft | 182 kts | 220° |
| 2026-05-03 22:10 | 35.85554 | -78.81063 | 2243 ft | 159 kts | 194° |
| 2026-05-03 22:10 | 35.84542 | -78.81279 | 2948 ft | 144 kts | 194° |
| 2026-05-03 22:10 | 35.83577 | -78.81489 | 3376 ft | 145 kts | 192° |
| 2026-05-03 22:10 | 35.82551 | -78.81691 | 3656 ft | 154 kts | 195° |
| 2026-05-03 22:11 | 35.81467 | -78.81922 | 3865 ft | 162 kts | 195° |
| 2026-05-03 22:11 | 35.80336 | -78.82168 | 4080 ft | 171 kts | 195° |
| 2026-05-03 22:11 | 35.79140 | -78.82424 | 4308 ft | 181 kts | 195° |
| 2026-05-03 22:11 | 35.77870 | -78.82693 | 4554 ft | 192 kts | 195° |
| 2026-05-03 22:12 | 35.76523 | -78.82981 | 4814 ft | 203 kts | 194° |
| 2026-05-03 22:12 | 35.75076 | -78.83286 | 5090 ft | 216 kts | 195° |
| 2026-05-03 22:12 | 35.73571 | -78.83606 | 5334 ft | 232 kts | 194° |
| 2026-05-03 22:12 | 35.71927 | -78.83956 | 5617 ft | 248 kts | 194° |
| 2026-05-03 22:13 | 35.70202 | -78.84314 | 6077 ft | 257 kts | 194° |
| 2026-05-03 22:13 | 35.68400 | -78.84690 | 6520 ft | 269 kts | 194° |
| 2026-05-03 22:13 | 35.66524 | -78.85080 | 7194 ft | 273 kts | 194° |
| 2026-05-03 22:13 | 35.64638 | -78.85471 | 7934 ft | 274 kts | 194° |
| 2026-05-03 22:14 | 35.62742 | -78.85865 | 8654 ft | 276 kts | 194° |
| 2026-05-03 22:14 | 35.60899 | -78.86249 | 9343 ft | 277 kts | 194° |
| 2026-05-03 22:14 | 35.59001 | -78.86646 | 10031 ft | 278 kts | 194° |
| 2026-05-03 22:14 | 35.57072 | -78.87051 | 10576 ft | 285 kts | 194° |
| 2026-05-03 22:15 | 35.55051 | -78.87479 | 10882 ft | 300 kts | 194° |
| 2026-05-03 22:15 | 35.52926 | -78.87928 | 11180 ft | 315 kts | 194° |
| 2026-05-03 22:15 | 35.50716 | -78.88391 | 11464 ft | 329 kts | 194° |
| 2026-05-03 22:15 | 35.48430 | -78.88867 | 11859 ft | 338 kts | 194° |
| 2026-05-03 22:16 | 35.46096 | -78.89350 | 12465 ft | 341 kts | 194° |
| 2026-05-03 22:16 | 35.43761 | -78.89821 | 13085 ft | 343 kts | 193° |
| 2026-05-03 22:16 | 35.41398 | -78.90224 | 13678 ft | 346 kts | 192° |
| 2026-05-03 22:16 | 35.39007 | -78.90610 | 14250 ft | 348 kts | 192° |
| 2026-05-03 22:17 | 35.36601 | -78.91000 | 14813 ft | 351 kts | 192° |
| 2026-05-03 22:17 | 35.34184 | -78.91398 | 15367 ft | 353 kts | 192° |
| 2026-05-03 22:17 | 35.31751 | -78.91801 | 15915 ft | 355 kts | 192° |
| 2026-05-03 22:17 | 35.29286 | -78.92085 | 16457 ft | 360 kts | 187° |
| 2026-05-03 22:18 | 35.26765 | -78.92086 | 16990 ft | 365 kts | 182° |
| 2026-05-03 22:18 | 35.24241 | -78.91798 | 17501 ft | 369 kts | 178° |
| 2026-05-03 22:18 | 35.21667 | -78.91379 | 17994 ft | 372 kts | 178° |
| 2026-05-03 22:18 | 35.19108 | -78.90944 | 18465 ft | 375 kts | 178° |
| 2026-05-03 22:19 | 35.16532 | -78.90506 | 18940 ft | 377 kts | 178° |
| 2026-05-03 22:19 | 35.13944 | -78.90070 | 19405 ft | 379 kts | 178° |
| 2026-05-03 22:19 | 35.11311 | -78.89629 | 19866 ft | 381 kts | 178° |
| 2026-05-03 22:19 | 35.08649 | -78.89186 | 20318 ft | 383 kts | 178° |
| 2026-05-03 22:20 | 35.05996 | -78.88744 | 20756 ft | 385 kts | 178° |
| 2026-05-03 22:20 | 35.03333 | -78.88302 | 21176 ft | 387 kts | 178° |
| 2026-05-03 22:20 | 35.00649 | -78.87971 | 21561 ft | 386 kts | 183° |
| 2026-05-03 22:20 | 34.98211 | -78.87996 | 21853 ft | 386 kts | 189° |
| 2026-05-03 22:21 | 34.95530 | -78.88403 | 22185 ft | 386 kts | 195° |
| 2026-05-03 22:21 | 34.92893 | -78.89094 | 22545 ft | 387 kts | 197° |
| 2026-05-03 22:21 | 34.90245 | -78.89841 | 22895 ft | 390 kts | 198° |
| 2026-05-03 22:21 | 34.87579 | -78.90600 | 23178 ft | 394 kts | 198° |
| 2026-05-03 22:22 | 34.84867 | -78.91370 | 23379 ft | 400 kts | 198° |
| 2026-05-03 22:22 | 34.82136 | -78.92141 | 23700 ft | 403 kts | 197° |
| 2026-05-03 22:22 | 34.79393 | -78.92911 | 24057 ft | 405 kts | 197° |
| 2026-05-03 22:22 | 34.76640 | -78.93683 | 24397 ft | 406 kts | 197° |
| 2026-05-03 22:23 | 34.73862 | -78.94460 | 24729 ft | 408 kts | 197° |
| 2026-05-03 22:23 | 34.71078 | -78.95238 | 25046 ft | 410 kts | 197° |
| 2026-05-03 22:23 | 34.68284 | -78.96018 | 25362 ft | 412 kts | 197° |
| 2026-05-03 22:23 | 34.65461 | -78.96806 | 25661 ft | 414 kts | 197° |
| 2026-05-03 22:24 | 34.62625 | -78.97597 | 25958 ft | 415 kts | 197° |
| 2026-05-03 22:24 | 34.59775 | -78.98391 | 26260 ft | 417 kts | 197° |
| 2026-05-03 22:24 | 34.56935 | -78.99181 | 26554 ft | 418 kts | 197° |
| 2026-05-03 22:24 | 34.54071 | -78.99978 | 26845 ft | 419 kts | 197° |
| 2026-05-03 22:25 | 34.51192 | -79.00779 | 27119 ft | 421 kts | 197° |
| 2026-05-03 22:25 | 34.48298 | -79.01584 | 27380 ft | 422 kts | 198° |
| 2026-05-03 22:25 | 34.45444 | -79.02538 | 27634 ft | 421 kts | 202° |
| 2026-05-03 22:25 | 34.42682 | -79.03763 | 27945 ft | 419 kts | 206° |
| 2026-05-03 22:26 | 34.40044 | -79.05238 | 28308 ft | 415 kts | 211° |
| 2026-05-03 22:26 | 34.37493 | -79.06891 | 28682 ft | 412 kts | 212° |
| 2026-05-03 22:26 | 34.35080 | -79.08485 | 29039 ft | 410 kts | 212° |
| 2026-05-03 22:26 | 34.32505 | -79.10189 | 29397 ft | 409 kts | 212° |
| 2026-05-03 22:27 | 34.30029 | -79.11829 | 29731 ft | 407 kts | 212° |
| 2026-05-03 22:27 | 34.27557 | -79.13464 | 30051 ft | 406 kts | 212° |
| 2026-05-03 22:27 | 34.25101 | -79.15088 | 30380 ft | 404 kts | 212° |
| 2026-05-03 22:27 | 34.22646 | -79.16709 | 30692 ft | 403 kts | 212° |
| 2026-05-03 22:28 | 34.20191 | -79.18331 | 30999 ft | 402 kts | 212° |
| 2026-05-03 22:28 | 34.17759 | -79.19935 | 31299 ft | 400 kts | 213° |
| 2026-05-03 22:28 | 34.15324 | -79.21540 | 31577 ft | 399 kts | 213° |
| 2026-05-03 22:28 | 34.12906 | -79.23134 | 31840 ft | 398 kts | 213° |
| 2026-05-03 22:29 | 34.10488 | -79.24727 | 32090 ft | 398 kts | 213° |
| 2026-05-03 22:29 | 34.08071 | -79.26317 | 32327 ft | 397 kts | 213° |
| 2026-05-03 22:29 | 34.06055 | -79.27644 | 32508 ft | 397 kts | 213° |
| 2026-05-03 22:29 | 34.03642 | -79.29230 | 32701 ft | 398 kts | 213° |
| 2026-05-03 22:30 | 34.01222 | -79.30819 | 32874 ft | 399 kts | 213° |
| 2026-05-03 22:30 | 33.98795 | -79.32412 | 33043 ft | 399 kts | 213° |
| 2026-05-03 22:30 | 33.96600 | -79.33852 | 33204 ft | 400 kts | 213° |
| 2026-05-03 22:30 | 33.94165 | -79.35449 | 33395 ft | 400 kts | 213° |
| 2026-05-03 22:31 | 33.91734 | -79.37041 | 33551 ft | 401 kts | 213° |
| 2026-05-03 22:31 | 33.89296 | -79.38637 | 33708 ft | 401 kts | 213° |
| 2026-05-03 22:31 | 33.86853 | -79.40236 | 33887 ft | 401 kts | 212° |
| 2026-05-03 22:31 | 33.84400 | -79.41839 | 34057 ft | 402 kts | 212° |
| 2026-05-03 22:32 | 33.81947 | -79.43441 | 34107 ft | 403 kts | 212° |
| 2026-05-03 22:32 | 33.77041 | -79.46643 | 34115 ft | 403 kts | 212° |
| 2026-05-03 22:33 | 33.72131 | -79.49843 | 34118 ft | 403 kts | 213° |
| 2026-05-03 22:33 | 33.67218 | -79.53041 | 34123 ft | 403 kts | 212° |
| 2026-05-03 22:34 | 33.62316 | -79.56228 | 34126 ft | 402 kts | 212° |
| 2026-05-03 22:34 | 33.57410 | -79.59413 | 34128 ft | 403 kts | 212° |
| 2026-05-03 22:35 | 33.52516 | -79.62585 | 34127 ft | 403 kts | 213° |
| 2026-05-03 22:35 | 33.47605 | -79.65765 | 34129 ft | 403 kts | 212° |
| 2026-05-03 22:36 | 33.42688 | -79.68947 | 34125 ft | 403 kts | 212° |
| 2026-05-03 22:36 | 33.37767 | -79.72125 | 34123 ft | 403 kts | 212° |
| 2026-05-03 22:37 | 33.33405 | -79.74938 | 34125 ft | 403 kts | 212° |
| 2026-05-03 22:37 | 33.28493 | -79.78102 | 34127 ft | 403 kts | 212° |
| 2026-05-03 22:38 | 33.25138 | -79.80261 | 34128 ft | 403 kts | 212° |
| 2026-05-03 22:38 | 33.20560 | -79.83205 | 34129 ft | 403 kts | 212° |
| 2026-05-03 22:39 | 33.15623 | -79.86375 | 34128 ft | 403 kts | 212° |
| 2026-05-03 22:39 | 33.10698 | -79.89535 | 34125 ft | 403 kts | 212° |
| 2026-05-03 22:40 | 33.05750 | -79.92702 | 34122 ft | 406 kts | 212° |
| 2026-05-03 22:40 | 33.00773 | -79.95885 | 34121 ft | 408 kts | 212° |
| 2026-05-03 22:41 | 32.95761 | -79.99088 | 34120 ft | 412 kts | 212° |
| 2026-05-03 22:41 | 32.90714 | -80.02308 | 34121 ft | 413 kts | 212° |
| 2026-05-03 22:42 | 32.85646 | -80.05537 | 34123 ft | 413 kts | 212° |
| 2026-05-03 22:42 | 32.80604 | -80.08745 | 34125 ft | 413 kts | 212° |
| 2026-05-03 22:43 | 32.75552 | -80.11956 | 34126 ft | 413 kts | 212° |
| 2026-05-03 22:43 | 32.70486 | -80.15170 | 34128 ft | 413 kts | 212° |
| 2026-05-03 22:44 | 32.65450 | -80.18362 | 34130 ft | 413 kts | 212° |
| 2026-05-03 22:44 | 32.60391 | -80.21564 | 34134 ft | 413 kts | 212° |
| 2026-05-03 22:45 | 32.55324 | -80.24767 | 34136 ft | 413 kts | 212° |
| 2026-05-03 22:45 | 32.50257 | -80.27969 | 34137 ft | 413 kts | 212° |
| 2026-05-03 22:46 | 32.45204 | -80.31173 | 34136 ft | 413 kts | 212° |
| 2026-05-03 22:46 | 32.40129 | -80.34387 | 34136 ft | 413 kts | 212° |
| 2026-05-03 22:47 | 32.35052 | -80.37597 | 34138 ft | 413 kts | 212° |
| 2026-05-03 22:47 | 32.29977 | -80.40801 | 34142 ft | 413 kts | 212° |
| 2026-05-03 22:48 | 32.24926 | -80.43985 | 34146 ft | 413 kts | 212° |
| 2026-05-03 22:48 | 32.19880 | -80.47162 | 34147 ft | 413 kts | 212° |
| 2026-05-03 22:49 | 32.14817 | -80.50346 | 34148 ft | 413 kts | 212° |
| 2026-05-03 22:49 | 32.09783 | -80.53508 | 34148 ft | 413 kts | 212° |
| 2026-05-03 22:50 | 32.04731 | -80.56676 | 34148 ft | 413 kts | 212° |
| 2026-05-03 22:50 | 31.99683 | -80.59839 | 34148 ft | 413 kts | 212° |
| 2026-05-03 22:51 | 31.94634 | -80.62998 | 34148 ft | 413 kts | 212° |
| 2026-05-03 22:51 | 31.89588 | -80.66150 | 34149 ft | 413 kts | 212° |
| 2026-05-03 22:52 | 31.84528 | -80.69308 | 34146 ft | 413 kts | 212° |
| 2026-05-03 22:52 | 31.79471 | -80.72460 | 34140 ft | 413 kts | 212° |
| 2026-05-03 22:53 | 31.74412 | -80.75610 | 34134 ft | 413 kts | 212° |
| 2026-05-03 22:53 | 31.69356 | -80.78753 | 34127 ft | 413 kts | 212° |
| 2026-05-03 22:54 | 31.64295 | -80.81896 | 34119 ft | 413 kts | 212° |
| 2026-05-03 22:54 | 31.59232 | -80.85036 | 34110 ft | 413 kts | 212° |
| 2026-05-03 22:55 | 31.54153 | -80.88182 | 34102 ft | 413 kts | 212° |
| 2026-05-03 22:55 | 31.49088 | -80.91315 | 34098 ft | 414 kts | 212° |
| 2026-05-03 22:56 | 31.43988 | -80.94465 | 34103 ft | 414 kts | 212° |
| 2026-05-03 22:56 | 31.38891 | -80.97610 | 34112 ft | 415 kts | 212° |
| 2026-05-03 22:57 | 31.33798 | -81.00746 | 34120 ft | 416 kts | 212° |
| 2026-05-03 22:57 | 31.28456 | -81.03463 | 34126 ft | 421 kts | 204° |
| 2026-05-03 22:58 | 31.22808 | -81.05308 | 34129 ft | 427 kts | 197° |
| 2026-05-03 22:58 | 31.16911 | -81.06230 | 34129 ft | 433 kts | 189° |
| 2026-05-03 22:59 | 31.10885 | -81.06417 | 34130 ft | 435 kts | 187° |
| 2026-05-03 22:59 | 31.04867 | -81.06536 | 34130 ft | 435 kts | 187° |
| 2026-05-03 23:00 | 30.98835 | -81.06651 | 34131 ft | 434 kts | 188° |
| 2026-05-03 23:00 | 30.92828 | -81.06767 | 34131 ft | 432 kts | 189° |
| 2026-05-03 23:01 | 30.86847 | -81.06889 | 34131 ft | 430 kts | 189° |
| 2026-05-03 23:01 | 30.80901 | -81.07021 | 34132 ft | 430 kts | 190° |
| 2026-05-03 23:02 | 30.74953 | -81.07149 | 34136 ft | 430 kts | 189° |
| 2026-05-03 23:02 | 30.69005 | -81.07273 | 34141 ft | 430 kts | 189° |
| 2026-05-03 23:03 | 30.63036 | -81.07395 | 33946 ft | 431 kts | 189° |
| 2026-05-03 23:03 | 30.60048 | -81.07514 | 33695 ft | 429 kts | 191° |
| 2026-05-03 23:03 | 30.57081 | -81.07696 | 33445 ft | 429 kts | 192° |
| 2026-05-03 23:03 | 30.54097 | -81.07891 | 33194 ft | 430 kts | 191° |
| 2026-05-03 23:04 | 30.51123 | -81.08083 | 32945 ft | 432 kts | 191° |
| 2026-05-03 23:04 | 30.48104 | -81.08273 | 32692 ft | 433 kts | 191° |
| 2026-05-03 23:04 | 30.45102 | -81.08459 | 32442 ft | 434 kts | 191° |
| 2026-05-03 23:04 | 30.42104 | -81.08642 | 32192 ft | 435 kts | 191° |
| 2026-05-03 23:05 | 30.39089 | -81.08824 | 31942 ft | 436 kts | 191° |
| 2026-05-03 23:05 | 30.36077 | -81.09006 | 31692 ft | 437 kts | 191° |
| 2026-05-03 23:05 | 30.33043 | -81.09188 | 31441 ft | 438 kts | 191° |
| 2026-05-03 23:05 | 30.30011 | -81.09370 | 31191 ft | 439 kts | 191° |
| 2026-05-03 23:06 | 30.27068 | -81.09547 | 30949 ft | 440 kts | 190° |
| 2026-05-03 23:06 | 30.24021 | -81.09729 | 30699 ft | 441 kts | 190° |
| 2026-05-03 23:06 | 30.20972 | -81.09912 | 30449 ft | 442 kts | 190° |
| 2026-05-03 23:06 | 30.17911 | -81.10095 | 30208 ft | 442 kts | 190° |
| 2026-05-03 23:07 | 30.14840 | -81.10278 | 30142 ft | 443 kts | 190° |
| 2026-05-03 23:07 | 30.08763 | -81.10639 | 30140 ft | 443 kts | 190° |
| 2026-05-03 23:08 | 30.03030 | -81.10980 | 30139 ft | 443 kts | 190° |
| 2026-05-03 23:08 | 29.96885 | -81.11345 | 30139 ft | 443 kts | 190° |
| 2026-05-03 23:09 | 29.90714 | -81.11712 | 30139 ft | 443 kts | 190° |
| 2026-05-03 23:09 | 29.84574 | -81.12076 | 30139 ft | 443 kts | 190° |
| 2026-05-03 23:10 | 29.78396 | -81.12262 | 29969 ft | 446 kts | 187° |
| 2026-05-03 23:10 | 29.75298 | -81.12280 | 29718 ft | 447 kts | 187° |
| 2026-05-03 23:10 | 29.72191 | -81.12296 | 29467 ft | 448 kts | 187° |
| 2026-05-03 23:10 | 29.69067 | -81.12312 | 29215 ft | 448 kts | 187° |
| 2026-05-03 23:11 | 29.65967 | -81.12326 | 28964 ft | 447 kts | 187° |
| 2026-05-03 23:11 | 29.62878 | -81.12340 | 28714 ft | 445 kts | 187° |
| 2026-05-03 23:11 | 29.59800 | -81.12245 | 28462 ft | 448 kts | 182° |
| 2026-05-03 23:11 | 29.56713 | -81.11750 | 28215 ft | 452 kts | 175° |
| 2026-05-03 23:12 | 29.53670 | -81.10820 | 28128 ft | 457 kts | 168° |
| 2026-05-03 23:12 | 29.47660 | -81.08364 | 28123 ft | 461 kts | 166° |
| 2026-05-03 23:13 | 29.41669 | -81.05843 | 28120 ft | 462 kts | 167° |
| 2026-05-03 23:13 | 29.35639 | -81.03331 | 28117 ft | 462 kts | 167° |
| 2026-05-03 23:14 | 29.29615 | -81.00838 | 28115 ft | 462 kts | 167° |
| 2026-05-03 23:14 | 29.23594 | -80.98354 | 28112 ft | 462 kts | 167° |
| 2026-05-03 23:15 | 29.17560 | -80.95868 | 28110 ft | 462 kts | 167° |
| 2026-05-03 23:15 | 29.11538 | -80.93390 | 28108 ft | 462 kts | 167° |
| 2026-05-03 23:16 | 29.05505 | -80.90910 | 28106 ft | 462 kts | 167° |
| 2026-05-03 23:16 | 28.99499 | -80.88444 | 28104 ft | 460 kts | 167° |
| 2026-05-03 23:17 | 28.93511 | -80.85990 | 28103 ft | 459 kts | 167° |
| 2026-05-03 23:17 | 28.87514 | -80.83538 | 28099 ft | 459 kts | 167° |
| 2026-05-03 23:18 | 28.81529 | -80.81094 | 28092 ft | 459 kts | 167° |
| 2026-05-03 23:18 | 28.75545 | -80.78653 | 28084 ft | 459 kts | 167° |
| 2026-05-03 23:19 | 28.69562 | -80.76215 | 28081 ft | 459 kts | 167° |
| 2026-05-03 23:19 | 28.63572 | -80.73777 | 28081 ft | 459 kts | 167° |
| 2026-05-03 23:20 | 28.57589 | -80.71345 | 28082 ft | 459 kts | 167° |
| 2026-05-03 23:20 | 28.51593 | -80.68910 | 28077 ft | 459 kts | 167° |
| 2026-05-03 23:21 | 28.45615 | -80.66486 | 28068 ft | 459 kts | 167° |
| 2026-05-03 23:21 | 28.39631 | -80.64062 | 28059 ft | 459 kts | 167° |
| 2026-05-03 23:22 | 28.30640 | -80.60427 | 28050 ft | 459 kts | 167° |
| 2026-05-03 23:22 | 28.24651 | -80.58009 | 28049 ft | 459 kts | 167° |
| 2026-05-03 23:23 | 28.18661 | -80.55593 | 28049 ft | 458 kts | 167° |
| 2026-05-03 23:23 | 28.15677 | -80.54390 | 27750 ft | 456 kts | 167° |
| 2026-05-03 23:23 | 28.12707 | -80.53196 | 26846 ft | 461 kts | 167° |
| 2026-05-03 23:24 | 28.09693 | -80.51991 | 25916 ft | 464 kts | 166° |
| 2026-05-03 23:24 | 28.06666 | -80.50775 | 25252 ft | 461 kts | 166° |
| 2026-05-03 23:24 | 28.03690 | -80.49572 | 24899 ft | 450 kts | 166° |
| 2026-05-03 23:24 | 28.00789 | -80.48398 | 24667 ft | 438 kts | 166° |
| 2026-05-03 23:25 | 27.97956 | -80.47255 | 24496 ft | 424 kts | 166° |
| 2026-05-03 23:25 | 27.95222 | -80.46155 | 24317 ft | 411 kts | 166° |
| 2026-05-03 23:25 | 27.92569 | -80.45091 | 24143 ft | 399 kts | 167° |
| 2026-05-03 23:25 | 27.89982 | -80.44054 | 23841 ft | 391 kts | 167° |
| 2026-05-03 23:26 | 27.87446 | -80.43040 | 23466 ft | 386 kts | 167° |
| 2026-05-03 23:26 | 27.84917 | -80.42028 | 23095 ft | 381 kts | 166° |
| 2026-05-03 23:26 | 27.82456 | -80.41043 | 22737 ft | 376 kts | 166° |
| 2026-05-03 23:26 | 27.80030 | -80.40072 | 22384 ft | 370 kts | 166° |
| 2026-05-03 23:27 | 27.77601 | -80.39100 | 22034 ft | 365 kts | 166° |
| 2026-05-03 23:27 | 27.75259 | -80.38162 | 21638 ft | 359 kts | 166° |
| 2026-05-03 23:27 | 27.72936 | -80.37233 | 21226 ft | 354 kts | 166° |
| 2026-05-03 23:27 | 27.70637 | -80.36314 | 20812 ft | 349 kts | 166° |
| 2026-05-03 23:28 | 27.68382 | -80.35414 | 20359 ft | 345 kts | 166° |
| 2026-05-03 23:28 | 27.66148 | -80.34466 | 19872 ft | 345 kts | 163° |
| 2026-05-03 23:28 | 27.63974 | -80.33373 | 19390 ft | 343 kts | 160° |
| 2026-05-03 23:28 | 27.61828 | -80.32239 | 18917 ft | 341 kts | 160° |
| 2026-05-03 23:29 | 27.59703 | -80.31109 | 18445 ft | 338 kts | 159° |
| 2026-05-03 23:29 | 27.57596 | -80.29991 | 17976 ft | 336 kts | 159° |
| 2026-05-03 23:29 | 27.55502 | -80.28882 | 17511 ft | 333 kts | 159° |
| 2026-05-03 23:29 | 27.53424 | -80.27785 | 17049 ft | 331 kts | 159° |
| 2026-05-03 23:30 | 27.51364 | -80.26698 | 16591 ft | 328 kts | 159° |
| 2026-05-03 23:30 | 27.49304 | -80.25612 | 16133 ft | 326 kts | 159° |
| 2026-05-03 23:30 | 27.47278 | -80.24544 | 15681 ft | 323 kts | 158° |
| 2026-05-03 23:30 | 27.45271 | -80.23487 | 15227 ft | 320 kts | 158° |
| 2026-05-03 23:31 | 27.43274 | -80.22436 | 14696 ft | 317 kts | 158° |
| 2026-05-03 23:31 | 27.41296 | -80.21396 | 14169 ft | 315 kts | 158° |
| 2026-05-03 23:31 | 27.39324 | -80.20358 | 13656 ft | 312 kts | 157° |
| 2026-05-03 23:31 | 27.37381 | -80.19337 | 13151 ft | 310 kts | 157° |
| 2026-05-03 23:32 | 27.35455 | -80.18324 | 12649 ft | 307 kts | 157° |
| 2026-05-03 23:32 | 27.33536 | -80.17315 | 12148 ft | 304 kts | 156° |
| 2026-05-03 23:32 | 27.31641 | -80.16319 | 11650 ft | 302 kts | 156° |
| 2026-05-03 23:32 | 27.29757 | -80.15328 | 11136 ft | 300 kts | 156° |
| 2026-05-03 23:33 | 27.27884 | -80.14345 | 10617 ft | 299 kts | 156° |
| 2026-05-03 23:33 | 27.26041 | -80.13378 | 10110 ft | 297 kts | 156° |
| 2026-05-03 23:33 | 27.24165 | -80.12425 | 9600 ft | 296 kts | 158° |
| 2026-05-03 23:33 | 27.22292 | -80.11520 | 9097 ft | 294 kts | 158° |
| 2026-05-03 23:34 | 27.20424 | -80.10626 | 8595 ft | 293 kts | 158° |
| 2026-05-03 23:34 | 27.18577 | -80.09738 | 8151 ft | 290 kts | 157° |
| 2026-05-03 23:34 | 27.16731 | -80.08846 | 8015 ft | 290 kts | 157° |
| 2026-05-03 23:34 | 27.14874 | -80.07947 | 7771 ft | 293 kts | 157° |
| 2026-05-03 23:35 | 27.13024 | -80.07049 | 7403 ft | 293 kts | 157° |
| 2026-05-03 23:35 | 27.11160 | -80.06130 | 7046 ft | 293 kts | 156° |
| 2026-05-03 23:35 | 27.09350 | -80.05232 | 6696 ft | 292 kts | 156° |
| 2026-05-03 23:35 | 27.07532 | -80.04329 | 6345 ft | 292 kts | 156° |
| 2026-05-03 23:36 | 27.05696 | -80.03419 | 5991 ft | 291 kts | 156° |
| 2026-05-03 23:36 | 27.03955 | -80.02557 | 5656 ft | 290 kts | 156° |
| 2026-05-03 23:36 | 27.02113 | -80.01646 | 5301 ft | 290 kts | 156° |
| 2026-05-03 23:36 | 27.00282 | -80.00741 | 4950 ft | 289 kts | 156° |
| 2026-05-03 23:37 | 26.98452 | -79.99837 | 4598 ft | 288 kts | 156° |
| 2026-05-03 23:37 | 26.96612 | -79.98974 | 4244 ft | 288 kts | 163° |
| 2026-05-03 23:37 | 26.94757 | -79.98858 | 4009 ft | 281 kts | 195° |
| 2026-05-03 23:37 | 26.93076 | -79.99860 | 4010 ft | 274 kts | 219° |
| 2026-05-03 23:38 | 26.91604 | -80.01198 | 4006 ft | 274 kts | 221° |
| 2026-05-03 23:38 | 26.90137 | -80.02555 | 4002 ft | 274 kts | 220° |
| 2026-05-03 23:38 | 26.88652 | -80.03889 | 4001 ft | 274 kts | 219° |
| 2026-05-03 23:38 | 26.87145 | -80.05210 | 4000 ft | 274 kts | 219° |
| 2026-05-03 23:39 | 26.85650 | -80.06504 | 4000 ft | 274 kts | 219° |
| 2026-05-03 23:39 | 26.84143 | -80.07803 | 3999 ft | 274 kts | 219° |
| 2026-05-03 23:39 | 26.82656 | -80.09095 | 3937 ft | 269 kts | 219° |
| 2026-05-03 23:39 | 26.81229 | -80.10389 | 3780 ft | 260 kts | 227° |
| 2026-05-03 23:40 | 26.80380 | -80.12086 | 3597 ft | 248 kts | 260° |
| 2026-05-03 23:40 | 26.80161 | -80.13962 | 3450 ft | 239 kts | 268° |
| 2026-05-03 23:40 | 26.80104 | -80.15798 | 3195 ft | 236 kts | 272° |
| 2026-05-03 23:40 | 26.80119 | -80.17621 | 3005 ft | 234 kts | 273° |
| 2026-05-03 23:41 | 26.80144 | -80.19388 | 2995 ft | 223 kts | 273° |
| 2026-05-03 23:41 | 26.80170 | -80.21106 | 2998 ft | 221 kts | 273° |
| 2026-05-03 23:41 | 26.80197 | -80.22823 | 2999 ft | 221 kts | 273° |
| 2026-05-03 23:41 | 26.80224 | -80.24544 | 2999 ft | 221 kts | 273° |
| 2026-05-03 23:42 | 26.80251 | -80.26265 | 3000 ft | 221 kts | 273° |
| 2026-05-03 23:42 | 26.80279 | -80.27979 | 3000 ft | 221 kts | 273° |
| 2026-05-03 23:42 | 26.80307 | -80.29710 | 3000 ft | 221 kts | 273° |
| 2026-05-03 23:42 | 26.80335 | -80.31410 | 3000 ft | 221 kts | 273° |
| 2026-05-03 23:43 | 26.80363 | -80.33129 | 3000 ft | 221 kts | 273° |
| 2026-05-03 23:43 | 26.80392 | -80.34841 | 2995 ft | 216 kts | 273° |
| 2026-05-03 23:43 | 26.80416 | -80.36459 | 2983 ft | 202 kts | 273° |
| 2026-05-03 23:43 | 26.80436 | -80.37981 | 2981 ft | 192 kts | 273° |
| 2026-05-03 23:44 | 26.80454 | -80.39473 | 2992 ft | 192 kts | 273° |
| 2026-05-03 23:44 | 26.80274 | -80.40945 | 2971 ft | 195 kts | 242° |
| 2026-05-03 23:44 | 26.79263 | -80.41921 | 2981 ft | 199 kts | 193° |
| 2026-05-03 23:44 | 26.77855 | -80.41822 | 3026 ft | 219 kts | 153° |
| 2026-05-03 23:45 | 26.76586 | -80.40847 | 3040 ft | 224 kts | 139° |
| 2026-05-03 23:45 | 26.75403 | -80.39766 | 3007 ft | 214 kts | 140° |
| 2026-05-03 23:45 | 26.74278 | -80.38776 | 2987 ft | 200 kts | 141° |
| 2026-05-03 23:45 | 26.73184 | -80.37854 | 2990 ft | 196 kts | 142° |
| 2026-05-03 23:46 | 26.72092 | -80.36957 | 2996 ft | 196 kts | 142° |
| 2026-05-03 23:46 | 26.70984 | -80.36061 | 2998 ft | 196 kts | 142° |
| 2026-05-03 23:46 | 26.69956 | -80.35092 | 2992 ft | 194 kts | 126° |
| 2026-05-03 23:46 | 26.69359 | -80.33739 | 3023 ft | 197 kts | 101° |
| 2026-05-03 23:47 | 26.69188 | -80.32316 | 3057 ft | 174 kts | 90° |
| 2026-05-03 23:47 | 26.69158 | -80.31032 | 2998 ft | 160 kts | 88° |
| 2026-05-03 23:47 | 26.69145 | -80.29912 | 2996 ft | 159 kts | 88° |
| 2026-05-03 23:47 | 26.69118 | -80.28669 | 2998 ft | 159 kts | 89° |
| 2026-05-03 23:48 | 26.69078 | -80.27488 | 2945 ft | 160 kts | 90° |
| 2026-05-03 23:48 | 26.69029 | -80.26329 | 2791 ft | 159 kts | 90° |
| 2026-05-03 23:48 | 26.68976 | -80.25185 | 2594 ft | 155 kts | 90° |
| 2026-05-03 23:48 | 26.68920 | -80.24044 | 2375 ft | 150 kts | 90° |
| 2026-05-03 23:49 | 26.68865 | -80.22899 | 2172 ft | 148 kts | 90° |
| 2026-05-03 23:49 | 26.68811 | -80.21766 | 1976 ft | 147 kts | 90° |
| 2026-05-03 23:49 | 26.68760 | -80.20665 | 1788 ft | 147 kts | 90° |
| 2026-05-03 23:49 | 26.68709 | -80.19544 | 1599 ft | 146 kts | 90° |
| 2026-05-03 23:50 | 26.68653 | -80.18419 | 1410 ft | 145 kts | 90° |
| 2026-05-03 23:50 | 26.68618 | -80.17669 | 1283 ft | 145 kts | 90° |
| 2026-05-03 23:50 | 26.68554 | -80.16184 | 1032 ft | 144 kts | 90° |
| 2026-05-03 23:50 | 26.68505 | -80.15066 | 842 ft | 143 kts | 90° |
| 2026-05-03 23:51 | 26.68456 | -80.13964 | 652 ft | 143 kts | 90° |
| 2026-05-03 23:51 | 26.68407 | -80.12856 | 461 ft | 142 kts | 90° |
| 2026-05-03 23:51 | 26.68359 | -80.11768 | 275 ft | 141 kts | 90° |
| 2026-05-03 23:51 | 26.68311 | -80.10668 | 88 ft | 141 kts | 90° |
| 2026-05-03 23:52 | 26.68263 | -80.09647 | 19 ft | 120 kts | 95° |
| 2026-05-03 23:52 | 26.68246 | -80.08924 | 19 ft | 57 kts | 92° |
| 2026-05-03 23:52 | 26.68262 | -80.08691 | 19 ft | 5 kts | 58° |
| 2026-05-03 23:52 | 26.68275 | -80.08672 | 19 ft | 7 kts | 54° |
| 2026-05-03 23:53 | 26.68313 | -80.08626 | 19 ft | 8 kts | 17° |
| 2026-05-03 23:53 | 26.68374 | -80.08623 | 19 ft | 9 kts | 355° |
| 2026-05-03 23:53 | 26.68424 | -80.08660 | 19 ft | 9 kts | 302° |
| 2026-05-03 23:53 | 26.68439 | -80.08732 | 19 ft | 10 kts | 271° |
| 2026-05-03 23:54 | 26.68440 | -80.08815 | 19 ft | 11 kts | 270° |
| 2026-05-03 23:54 | 26.68441 | -80.08904 | 19 ft | 12 kts | 271° |
| 2026-05-03 23:54 | 26.68442 | -80.08998 | 19 ft | 13 kts | 271° |
| 2026-05-03 23:54 | 26.68473 | -80.09086 | 19 ft | 13 kts | 331° |
| 2026-05-03 23:55 | 26.68562 | -80.09092 | 19 ft | 13 kts | 4° |
| 2026-05-03 23:55 | 26.68629 | -80.09131 | 19 ft | 13 kts | 283° |
| 2026-05-03 23:55 | 26.68628 | -80.09220 | 19 ft | 8 kts | 218° |
| 2026-05-03 23:55 | 26.68617 | -80.09236 | 19 ft | 3 kts | 249° |
| 2026-05-03 23:56 | 26.68622 | -80.09256 | 19 ft | 3 kts | 308° |
| 2026-05-03 23:56 | 26.68641 | -80.09277 | 19 ft | 4 kts | 319° |
| 2026-05-03 23:56 | 26.68648 | -80.09283 | 19 ft | 0 kts | 319° |